createdAt,value
2023-10-28T00:00:52.431Z,339
2023-10-28T00:01:52.505Z,330
2023-10-28T00:02:49.962Z,346
2023-10-28T00:03:49.708Z,343
2023-10-28T00:04:49.627Z,342
2023-10-28T00:05:49.675Z,345
2023-10-28T00:06:50.528Z,342
2023-10-28T00:07:50.949Z,347
2023-10-28T00:08:50.747Z,341
2023-10-28T00:09:50.886Z,345
2023-10-28T00:10:52.281Z,348
2023-10-28T00:11:50.433Z,347
2023-10-28T00:12:49.082Z,345
2023-10-28T00:13:49.124Z,353
2023-10-28T00:14:50.250Z,348
2023-10-28T00:15:51.859Z,342
2023-10-28T00:16:51.036Z,343
2023-10-28T00:17:51.788Z,336
2023-10-28T00:18:51.208Z,341
2023-10-28T00:19:51.839Z,347
2023-10-28T00:21:50.243Z,343
2023-10-28T00:22:50.786Z,345
2023-10-28T00:23:49.501Z,337
2023-10-28T00:24:51.169Z,343
2023-10-28T00:25:51.590Z,336
2023-10-28T00:26:51.858Z,340
2023-10-28T00:27:51.266Z,344
2023-10-28T00:28:51.552Z,351
2023-10-28T00:29:50.425Z,347
2023-10-28T00:30:50.469Z,342
2023-10-28T00:31:50.953Z,334
2023-10-28T00:32:50.854Z,335
2023-10-28T00:33:50.122Z,340
2023-10-28T00:34:50.903Z,345
2023-10-28T00:35:51.609Z,350
2023-10-28T00:36:51.473Z,347
2023-10-28T00:38:52.296Z,355
2023-10-28T00:39:50.543Z,353
2023-10-28T00:40:50.116Z,346
2023-10-28T00:41:51.049Z,341
2023-10-28T00:42:50.963Z,344
2023-10-28T00:43:51.773Z,348
2023-10-28T00:45:50.671Z,344
2023-10-28T00:46:49.701Z,354
2023-10-28T00:48:50.698Z,347
2023-10-28T00:50:50.816Z,355
2023-10-28T00:51:50.653Z,346
2023-10-28T00:52:51.399Z,344
2023-10-28T00:53:52.231Z,339
2023-10-28T00:54:51.068Z,347
2023-10-28T00:55:51.508Z,345
2023-10-28T00:56:50.301Z,338
2023-10-28T00:57:51.498Z,333
2023-10-28T00:58:52.500Z,341
2023-10-28T00:59:51.947Z,344
2023-10-28T01:00:52.122Z,341
2023-10-28T01:01:51.075Z,335
2023-10-28T01:02:49.513Z,333
2023-10-28T01:03:50.197Z,331
2023-10-28T01:04:48.991Z,324
2023-10-28T01:06:51.641Z,325
2023-10-28T01:07:52.087Z,328
2023-10-28T01:08:52.354Z,337
2023-10-28T01:09:51.720Z,335
2023-10-28T01:10:51.023Z,332
2023-10-28T01:11:50.989Z,330
2023-10-28T01:12:51.452Z,325
2023-10-28T01:13:50.379Z,334
2023-10-28T01:14:51.048Z,339
2023-10-28T01:15:50.185Z,335
2023-10-28T01:16:51.081Z,328
2023-10-28T01:17:50.620Z,330
2023-10-28T01:18:50.902Z,338
2023-10-28T01:19:52.072Z,334
2023-10-28T01:20:50.584Z,344
2023-10-28T01:21:49.261Z,348
2023-10-28T01:22:49.914Z,335
2023-10-28T01:23:51.748Z,334
2023-10-28T01:24:51.726Z,330
2023-10-28T01:25:52.095Z,344
2023-10-28T01:26:52.148Z,345
2023-10-28T01:27:51.763Z,332
2023-10-28T01:28:50.280Z,338
2023-10-28T01:29:49.788Z,340
2023-10-28T01:30:50.491Z,337
2023-10-28T01:31:51.324Z,334
2023-10-28T01:32:52.134Z,330
2023-10-28T01:33:51.482Z,333
2023-10-28T01:34:51.802Z,343
2023-10-28T01:37:50.991Z,329
2023-10-28T01:38:52.094Z,340
2023-10-28T01:39:52.078Z,346
2023-10-28T01:40:52.845Z,345
2023-10-28T01:41:52.523Z,344
2023-10-28T01:42:52.046Z,348
2023-10-28T01:43:52.028Z,342
2023-10-28T01:44:51.395Z,336
2023-10-28T01:45:52.616Z,347
2023-10-28T01:46:51.183Z,346
2023-10-28T01:47:50.415Z,337
2023-10-28T01:49:51.235Z,346
2023-10-28T01:50:51.255Z,341
2023-10-28T01:51:51.677Z,346
2023-10-28T01:52:51.793Z,340
2023-10-28T01:53:52.056Z,348
2023-10-28T01:54:51.303Z,342
2023-10-28T01:55:51.833Z,341
2023-10-28T01:56:51.818Z,337
2023-10-28T01:57:52.190Z,334
2023-10-28T01:58:50.419Z,343
2023-10-28T01:59:50.510Z,336
2023-10-28T02:00:52.608Z,333
2023-10-28T02:01:52.020Z,336
2023-10-28T02:02:50.880Z,337
2023-10-28T02:03:51.797Z,343
2023-10-28T02:04:49.706Z,344
2023-10-28T02:05:49.754Z,341
2023-10-28T02:06:51.222Z,339
2023-10-28T02:07:49.681Z,336
2023-10-28T02:08:51.354Z,330
2023-10-28T02:09:51.325Z,336
2023-10-28T02:10:52.815Z,341
2023-10-28T02:11:51.832Z,338
2023-10-28T02:12:51.501Z,344
2023-10-28T02:13:52.207Z,332
2023-10-28T02:14:52.025Z,336
2023-10-28T02:15:50.274Z,326
2023-10-28T02:16:51.494Z,328
2023-10-28T02:17:51.490Z,339
2023-10-28T02:18:51.196Z,334
2023-10-28T02:19:51.214Z,343
2023-10-28T02:20:50.937Z,339
2023-10-28T02:21:59.180Z,331
2023-10-28T02:22:50.789Z,337
2023-10-28T02:23:50.712Z,340
2023-10-28T02:24:52.466Z,338
2023-10-28T02:25:53.152Z,336
2023-10-28T02:27:52.888Z,344
2023-10-28T02:28:52.623Z,334
2023-10-28T02:29:51.675Z,326
2023-10-28T02:30:51.979Z,332
2023-10-28T02:31:52.291Z,336
2023-10-28T02:32:51.763Z,335
2023-10-28T02:33:50.886Z,328
2023-10-28T02:34:51.866Z,341
2023-10-28T02:35:52.928Z,332
2023-10-28T02:36:51.332Z,323
2023-10-28T02:37:51.608Z,319
2023-10-28T02:38:51.793Z,326
2023-10-28T02:39:51.882Z,321
2023-10-28T02:40:52.184Z,323
2023-10-28T02:41:52.166Z,330
2023-10-28T02:42:51.602Z,337
2023-10-28T02:43:51.698Z,340
2023-10-28T02:44:51.144Z,338
2023-10-28T02:45:51.772Z,351
2023-10-28T02:46:51.366Z,334
2023-10-28T02:47:51.375Z,344
2023-10-28T02:48:52.075Z,336
2023-10-28T02:49:51.400Z,337
2023-10-28T02:50:52.039Z,334
2023-10-28T02:51:52.307Z,324
2023-10-28T02:53:52.071Z,356
2023-10-28T02:54:50.885Z,346
2023-10-28T02:55:51.657Z,329
2023-10-28T02:56:51.490Z,318
2023-10-28T02:57:51.759Z,311
2023-10-28T02:58:52.568Z,317
2023-10-28T02:59:51.520Z,326
2023-10-28T03:00:52.304Z,328
2023-10-28T03:01:51.677Z,334
2023-10-28T03:02:52.340Z,336
2023-10-28T03:03:51.510Z,327
2023-10-28T03:04:51.380Z,324
2023-10-28T03:05:51.289Z,330
2023-10-28T03:06:50.527Z,332
2023-10-28T03:07:51.899Z,331
2023-10-28T03:08:50.941Z,337
2023-10-28T03:09:52.611Z,335
2023-10-28T03:10:51.478Z,336
2023-10-28T03:11:51.891Z,345
2023-10-28T03:12:51.980Z,351
2023-10-28T03:13:51.215Z,345
2023-10-28T03:14:51.801Z,344
2023-10-28T03:15:53.205Z,339
2023-10-28T03:16:53.394Z,327
2023-10-28T03:17:53.356Z,326
2023-10-28T03:18:52.923Z,331
2023-10-28T03:19:52.484Z,333
2023-10-28T03:20:53.236Z,337
2023-10-28T03:21:54.401Z,334
2023-10-28T03:22:53.269Z,335
2023-10-28T03:24:51.175Z,332
2023-10-28T03:25:49.974Z,337
2023-10-28T03:26:51.544Z,335
2023-10-28T03:27:51.686Z,329
2023-10-28T03:28:51.857Z,325
2023-10-28T03:29:51.167Z,336
2023-10-28T03:30:50.312Z,338
2023-10-28T03:31:51.267Z,342
2023-10-28T03:32:49.437Z,329
2023-10-28T03:33:50.309Z,331
2023-10-28T03:34:52.071Z,329
2023-10-28T03:35:50.137Z,327
2023-10-28T03:36:51.112Z,332
2023-10-28T03:37:51.880Z,329
2023-10-28T03:38:50.375Z,334
2023-10-28T03:39:50.917Z,342
2023-10-28T03:40:52.450Z,343
2023-10-28T03:41:50.859Z,340
2023-10-28T03:43:51.556Z,348
2023-10-28T03:44:51.001Z,345
2023-10-28T03:45:52.297Z,335
2023-10-28T03:46:52.253Z,333
2023-10-28T03:47:51.895Z,347
2023-10-28T03:48:52.060Z,346
2023-10-28T03:49:52.662Z,344
2023-10-28T03:51:51.877Z,345
2023-10-28T03:52:51.408Z,352
2023-10-28T03:53:51.112Z,349
2023-10-28T03:54:50.784Z,340
2023-10-28T03:56:50.633Z,351
2023-10-28T03:57:52.672Z,346
2023-10-28T03:58:51.568Z,339
2023-10-28T03:59:52.533Z,346
2023-10-28T04:00:52.232Z,342
2023-10-28T04:01:50.102Z,336
2023-10-28T04:02:51.773Z,338
2023-10-28T04:03:51.657Z,345
2023-10-28T04:04:50.983Z,338
2023-10-28T04:05:52.442Z,331
2023-10-28T04:06:50.869Z,345
2023-10-28T04:07:51.753Z,341
2023-10-28T04:08:51.411Z,338
2023-10-28T04:09:52.683Z,335
2023-10-28T04:11:50.672Z,339
2023-10-28T04:12:51.132Z,340
2023-10-28T04:13:52.633Z,351
2023-10-28T04:14:50.928Z,348
2023-10-28T04:15:52.245Z,339
2023-10-28T04:16:51.531Z,338
2023-10-28T04:17:51.564Z,341
2023-10-28T04:18:50.791Z,346
2023-10-28T04:19:52.019Z,349
2023-10-28T04:20:50.054Z,344
2023-10-28T04:21:52.252Z,337
2023-10-28T04:22:51.449Z,331
2023-10-28T04:23:52.010Z,335
2023-10-28T04:24:52.017Z,341
2023-10-28T04:25:52.976Z,340
2023-10-28T04:26:52.863Z,338
2023-10-28T04:27:53.076Z,341
2023-10-28T04:28:51.939Z,339
2023-10-28T04:29:50.804Z,332
2023-10-28T04:30:52.140Z,320
2023-10-28T04:31:53.076Z,326
2023-10-28T04:32:53.255Z,333
2023-10-28T04:33:51.183Z,341
2023-10-28T04:34:56.383Z,328
2023-10-28T04:35:55.512Z,323
2023-10-28T04:36:51.145Z,325
2023-10-28T04:37:50.540Z,327
2023-10-28T04:38:51.130Z,328
2023-10-28T04:39:51.608Z,336
2023-10-28T04:40:51.994Z,329
2023-10-28T04:41:50.242Z,331
2023-10-28T04:42:50.587Z,336
2023-10-28T04:43:51.504Z,335
2023-10-28T04:45:52.109Z,333
2023-10-28T04:46:51.574Z,342
2023-10-28T04:47:53.055Z,351
2023-10-28T04:48:51.056Z,341
2023-10-28T04:49:50.936Z,342
2023-10-28T04:50:52.049Z,352
2023-10-28T04:51:51.540Z,353
2023-10-28T04:52:52.511Z,341
2023-10-28T04:54:52.408Z,346
2023-10-28T04:55:52.898Z,350
2023-10-28T04:56:52.424Z,345
2023-10-28T04:57:51.452Z,337
2023-10-28T04:58:52.021Z,322
2023-10-28T04:59:50.382Z,337
2023-10-28T05:00:52.235Z,348
2023-10-28T05:01:51.504Z,345
2023-10-28T05:02:50.897Z,335
2023-10-28T05:03:49.945Z,343
2023-10-28T05:04:51.230Z,344
2023-10-28T05:05:51.923Z,345
2023-10-28T05:06:51.805Z,339
2023-10-28T05:07:49.631Z,340
2023-10-28T05:08:47.694Z,341
2023-10-28T05:09:49.126Z,357
2023-10-28T05:10:50.263Z,352
2023-10-28T05:11:50.741Z,332
2023-10-28T05:12:50.704Z,338
2023-10-28T05:13:51.557Z,339
2023-10-28T05:15:52.372Z,333
2023-10-28T05:16:51.256Z,337
2023-10-28T05:17:51.644Z,344
2023-10-28T05:18:51.498Z,346
2023-10-28T05:19:50.954Z,347
2023-10-28T05:20:50.057Z,336
2023-10-28T05:21:51.064Z,338
2023-10-28T05:22:51.672Z,339
2023-10-28T05:23:51.135Z,335
2023-10-28T05:24:52.123Z,330
2023-10-28T05:25:50.884Z,331
2023-10-28T05:26:52.827Z,332
2023-10-28T05:27:52.286Z,340
2023-10-28T05:28:51.899Z,334
2023-10-28T05:30:51.117Z,344
2023-10-28T05:31:51.141Z,349
2023-10-28T05:33:51.346Z,348
2023-10-28T05:34:51.912Z,341
2023-10-28T05:35:50.330Z,334
2023-10-28T05:36:50.805Z,336
2023-10-28T05:37:51.832Z,335
2023-10-28T05:38:51.656Z,339
2023-10-28T05:39:51.510Z,342
2023-10-28T05:40:51.794Z,346
2023-10-28T05:41:50.980Z,347
2023-10-28T05:42:51.990Z,339
2023-10-28T05:43:49.750Z,338
2023-10-28T05:44:51.098Z,339
2023-10-28T05:45:52.316Z,340
2023-10-28T05:46:50.746Z,334
2023-10-28T05:47:51.790Z,329
2023-10-28T05:48:51.248Z,340
2023-10-28T05:49:51.701Z,344
2023-10-28T05:50:51.508Z,338
2023-10-28T05:52:48.713Z,336
2023-10-28T05:53:50.429Z,329
2023-10-28T05:54:50.803Z,331
2023-10-28T05:55:51.900Z,341
2023-10-28T05:56:51.204Z,342
2023-10-28T05:57:51.501Z,333
2023-10-28T05:58:49.819Z,334
2023-10-28T05:59:50.831Z,348
2023-10-28T06:00:50.672Z,343
2023-10-28T06:01:51.676Z,347
2023-10-28T06:02:52.029Z,339
2023-10-28T06:03:51.772Z,335
2023-10-28T06:04:51.006Z,348
2023-10-28T06:05:49.366Z,349
2023-10-28T06:06:50.236Z,335
2023-10-28T06:07:51.953Z,341
2023-10-28T06:08:51.741Z,333
2023-10-28T06:09:51.632Z,343
2023-10-28T06:10:51.939Z,338
2023-10-28T06:11:51.734Z,344
2023-10-28T06:12:51.795Z,346
2023-10-28T06:13:51.474Z,345
2023-10-28T06:14:50.745Z,338
2023-10-28T06:15:51.198Z,339
2023-10-28T06:16:50.414Z,341
2023-10-28T06:17:50.744Z,346
2023-10-28T06:18:51.255Z,348
2023-10-28T06:19:51.808Z,342
2023-10-28T06:20:51.588Z,345
2023-10-28T06:21:50.340Z,340
2023-10-28T06:22:51.352Z,333
2023-10-28T06:23:49.985Z,345
2023-10-28T06:24:49.875Z,346
2023-10-28T06:25:52.068Z,341
2023-10-28T06:26:52.009Z,334
2023-10-28T06:27:52.360Z,339
2023-10-28T06:28:51.726Z,340
2023-10-28T06:29:51.309Z,339
2023-10-28T06:30:51.725Z,340
2023-10-28T06:31:52.154Z,331
2023-10-28T06:32:51.801Z,333
2023-10-28T06:33:49.991Z,339
2023-10-28T06:34:51.043Z,337
2023-10-28T06:35:50.587Z,344
2023-10-28T06:36:51.098Z,334
2023-10-28T06:37:52.209Z,339
2023-10-28T06:38:50.355Z,345
2023-10-28T06:39:52.666Z,343
2023-10-28T06:40:51.343Z,338
2023-10-28T06:41:51.693Z,330
2023-10-28T06:42:52.683Z,349
2023-10-28T06:43:52.028Z,348
2023-10-28T06:44:50.711Z,347
2023-10-28T06:45:50.499Z,343
2023-10-28T06:46:51.739Z,351
2023-10-28T06:47:49.877Z,353
2023-10-28T06:49:51.485Z,349
2023-10-28T06:50:51.672Z,345
2023-10-28T06:51:51.380Z,356
2023-10-28T06:52:51.671Z,352
2023-10-28T06:53:50.912Z,354
2023-10-28T06:54:51.155Z,346
2023-10-28T06:55:50.057Z,357
2023-10-28T06:56:49.069Z,363
2023-10-28T06:57:50.018Z,361
2023-10-28T06:58:50.671Z,352
2023-10-28T06:59:50.441Z,350
2023-10-28T07:00:51.098Z,347
2023-10-28T07:01:51.645Z,343
2023-10-28T07:02:51.804Z,350
2023-10-28T07:03:51.229Z,366
2023-10-28T07:04:51.974Z,367
2023-10-28T07:05:50.241Z,354
2023-10-28T07:06:51.150Z,345
2023-10-28T07:07:50.637Z,349
2023-10-28T07:08:51.265Z,347
2023-10-28T07:09:49.657Z,345
2023-10-28T07:10:50.087Z,343
2023-10-28T07:11:51.241Z,353
2023-10-28T07:12:51.628Z,359
2023-10-28T07:13:51.999Z,358
2023-10-28T07:14:53.315Z,357
2023-10-28T07:15:53.713Z,354
2023-10-28T07:16:53.318Z,344
2023-10-28T07:17:52.491Z,330
2023-10-28T07:18:51.371Z,337
2023-10-28T07:19:51.463Z,338
2023-10-28T07:20:50.746Z,346
2023-10-28T07:21:50.024Z,334
2023-10-28T07:22:50.098Z,336
2023-10-28T07:23:50.673Z,341
2023-10-28T07:24:50.932Z,336
2023-10-28T07:25:50.531Z,346
2023-10-28T07:26:51.759Z,344
2023-10-28T07:27:50.893Z,338
2023-10-28T07:28:49.437Z,342
2023-10-28T07:29:50.382Z,331
2023-10-28T07:30:49.038Z,333
2023-10-28T07:31:49.740Z,338
2023-10-28T07:32:50.144Z,346
2023-10-28T07:33:49.256Z,344
2023-10-28T07:34:49.176Z,337
2023-10-28T07:35:50.257Z,340
2023-10-28T07:36:50.393Z,334
2023-10-28T07:37:50.929Z,328
2023-10-28T07:38:52.226Z,332
2023-10-28T07:39:51.810Z,338
2023-10-28T07:40:51.716Z,331
2023-10-28T07:41:52.434Z,322
2023-10-28T07:42:51.393Z,331
2023-10-28T07:43:52.109Z,337
2023-10-28T07:44:51.726Z,344
2023-10-28T07:45:50.677Z,348
2023-10-28T07:46:51.438Z,339
2023-10-28T07:47:51.583Z,337
2023-10-28T07:48:51.731Z,336
2023-10-28T07:49:51.615Z,342
2023-10-28T07:50:50.846Z,348
2023-10-28T07:51:50.546Z,334
2023-10-28T07:53:49.020Z,337
2023-10-28T07:54:49.634Z,331
2023-10-28T07:55:50.303Z,325
2023-10-28T07:56:50.201Z,334
2023-10-28T07:57:51.246Z,335
2023-10-28T07:58:51.805Z,326
2023-10-28T07:59:51.115Z,329
2023-10-28T08:00:50.443Z,335
2023-10-28T08:02:52.261Z,330
2023-10-28T08:03:51.711Z,337
2023-10-28T08:04:50.434Z,327
2023-10-28T08:05:49.685Z,324
2023-10-28T08:06:50.918Z,316
2023-10-28T08:07:51.519Z,321
2023-10-28T08:08:51.781Z,329
2023-10-28T08:09:51.677Z,333
2023-10-28T08:10:51.468Z,327
2023-10-28T08:11:52.018Z,334
2023-10-28T08:12:52.375Z,332
2023-10-28T08:13:52.607Z,322
2023-10-28T08:14:52.356Z,323
2023-10-28T08:15:52.767Z,322
2023-10-28T08:16:52.849Z,325
2023-10-28T08:17:51.914Z,327
2023-10-28T08:18:52.532Z,333
2023-10-28T08:20:52.001Z,345
2023-10-28T08:21:52.723Z,328
2023-10-28T08:22:51.262Z,329
2023-10-28T08:23:51.819Z,337
2023-10-28T08:24:51.693Z,341
2023-10-28T08:25:51.243Z,336
2023-10-28T08:26:51.796Z,345
2023-10-28T08:27:51.941Z,352
2023-10-28T08:28:51.516Z,343
2023-10-28T08:29:49.694Z,336
2023-10-28T08:30:52.192Z,335
2023-10-28T08:31:52.059Z,330
2023-10-28T08:32:52.022Z,333
2023-10-28T08:33:52.828Z,329
2023-10-28T08:34:52.477Z,338
2023-10-28T08:35:52.432Z,328
2023-10-28T08:36:52.108Z,317
2023-10-28T08:37:51.544Z,332
2023-10-28T08:38:50.607Z,329
2023-10-28T08:39:51.552Z,328
2023-10-28T08:40:51.747Z,327
2023-10-28T08:41:50.297Z,340
2023-10-28T08:42:50.522Z,336
2023-10-28T08:43:50.959Z,330
2023-10-28T08:44:52.441Z,328
2023-10-28T08:45:51.973Z,329
2023-10-28T08:46:52.034Z,331
2023-10-28T08:47:52.184Z,321
2023-10-28T08:48:53.650Z,318
2023-10-28T08:49:52.947Z,325
2023-10-28T08:50:51.271Z,332
2023-10-28T08:51:52.170Z,336
2023-10-28T08:52:52.297Z,326
2023-10-28T08:53:51.931Z,332
2023-10-28T08:54:52.715Z,327
2023-10-28T08:55:52.368Z,335
2023-10-28T08:56:50.959Z,332
2023-10-28T08:57:51.180Z,337
2023-10-28T08:58:50.670Z,334
2023-10-28T08:59:50.947Z,332
2023-10-28T09:00:55.930Z,323
2023-10-28T09:02:53.737Z,336
2023-10-28T09:03:52.441Z,333
2023-10-28T09:04:51.629Z,330
2023-10-28T09:05:52.463Z,328
2023-10-28T09:06:51.797Z,339
2023-10-28T09:07:51.480Z,341
2023-10-28T09:08:51.227Z,347
2023-10-28T09:09:50.500Z,340
2023-10-28T09:10:51.328Z,333
2023-10-28T09:11:52.903Z,325
2023-10-28T09:12:52.930Z,324
2023-10-28T09:13:52.697Z,319
2023-10-28T09:14:51.947Z,317
2023-10-28T09:15:51.247Z,334
2023-10-28T09:16:50.631Z,339
2023-10-28T09:17:49.955Z,338
2023-10-28T09:18:52.084Z,330
2023-10-28T09:20:50.835Z,334
2023-10-28T09:21:51.272Z,332
2023-10-28T09:22:51.592Z,336
2023-10-28T09:23:50.989Z,340
2023-10-28T09:24:52.580Z,337
2023-10-28T09:25:52.002Z,325
2023-10-28T09:26:51.389Z,318
2023-10-28T09:27:51.694Z,326
2023-10-28T09:28:51.627Z,334
2023-10-28T09:30:52.210Z,333
2023-10-28T09:31:50.457Z,324
2023-10-28T09:32:48.770Z,323
2023-10-28T09:33:49.872Z,328
2023-10-28T09:34:51.767Z,335
2023-10-28T09:35:52.571Z,323
2023-10-28T09:36:51.917Z,329
2023-10-28T09:37:51.730Z,336
2023-10-28T09:38:52.363Z,333
2023-10-28T09:39:51.727Z,325
2023-10-28T09:40:50.835Z,333
2023-10-28T09:41:51.942Z,335
2023-10-28T09:42:52.096Z,336
2023-10-28T09:43:51.416Z,335
2023-10-28T09:45:50.978Z,334
2023-10-28T09:46:52.002Z,327
2023-10-28T09:47:51.510Z,335
2023-10-28T09:48:51.524Z,328
2023-10-28T09:49:49.328Z,338
2023-10-28T09:50:50.269Z,328
2023-10-28T09:51:49.912Z,320
2023-10-28T09:52:50.397Z,317
2023-10-28T09:53:51.332Z,322
2023-10-28T09:54:51.793Z,317
2023-10-28T09:55:52.404Z,327
2023-10-28T09:56:51.932Z,317
2023-10-28T09:57:50.885Z,312
2023-10-28T09:58:51.437Z,313
2023-10-28T09:59:51.847Z,324
2023-10-28T10:00:53.141Z,313
2023-10-28T10:01:50.298Z,309
2023-10-28T10:02:51.142Z,315
2023-10-28T10:03:51.999Z,329
2023-10-28T10:04:49.488Z,323
2023-10-28T10:05:49.747Z,313
2023-10-28T10:07:51.728Z,320
2023-10-28T10:08:52.278Z,316
2023-10-28T10:09:50.137Z,315
2023-10-28T10:10:51.361Z,317
2023-10-28T10:11:51.200Z,319
2023-10-28T10:12:51.173Z,318
2023-10-28T10:13:50.960Z,323
2023-10-28T10:14:50.284Z,329
2023-10-28T10:15:49.977Z,311
2023-10-28T10:18:51.289Z,305
2023-10-28T10:19:52.408Z,302
2023-10-28T10:20:52.519Z,307
2023-10-28T10:21:53.234Z,318
2023-10-28T10:22:52.878Z,317
2023-10-28T10:23:52.220Z,318
2023-10-28T10:24:53.146Z,314
2023-10-28T10:25:52.927Z,316
2023-10-28T10:26:52.578Z,312
2023-10-28T10:27:50.503Z,320
2023-10-28T10:28:51.446Z,306
2023-10-28T10:29:50.568Z,304
2023-10-28T10:30:50.860Z,309
2023-10-28T10:31:50.961Z,311
2023-10-28T10:32:50.237Z,310
2023-10-28T10:33:50.300Z,317
2023-10-28T10:35:51.422Z,315
2023-10-28T10:36:49.660Z,318
2023-10-28T10:37:49.795Z,324
2023-10-28T10:38:50.909Z,317
2023-10-28T10:39:51.608Z,323
2023-10-28T10:40:52.253Z,322
2023-10-28T10:41:52.176Z,326
2023-10-28T10:42:51.418Z,319
2023-10-28T10:43:51.335Z,313
2023-10-28T10:44:52.076Z,322
2023-10-28T10:45:52.801Z,331
2023-10-28T10:46:52.585Z,325
2023-10-28T10:47:51.640Z,320
2023-10-28T10:48:50.258Z,322
2023-10-28T10:49:51.431Z,327
2023-10-28T10:50:51.852Z,324
2023-10-28T10:51:52.639Z,326
2023-10-28T10:52:50.931Z,318
2023-10-28T10:53:51.912Z,319
2023-10-28T10:54:50.445Z,321
2023-10-28T10:55:50.807Z,316
2023-10-28T10:56:51.712Z,320
2023-10-28T10:57:51.612Z,319
2023-10-28T10:58:51.221Z,307
2023-10-28T10:59:51.150Z,301
2023-10-28T11:00:51.920Z,314
2023-10-28T11:01:52.571Z,308
2023-10-28T11:02:52.903Z,307
2023-10-28T11:03:51.454Z,314
2023-10-28T11:04:51.749Z,315
2023-10-28T11:05:50.686Z,326
2023-10-28T11:06:50.489Z,319
2023-10-28T11:07:52.247Z,312
2023-10-28T11:08:51.816Z,321
2023-10-28T11:09:50.192Z,325
2023-10-28T11:10:52.209Z,338
2023-10-28T11:11:52.012Z,337
2023-10-28T11:12:50.561Z,331
2023-10-28T11:13:48.821Z,323
2023-10-28T11:14:51.404Z,320
2023-10-28T11:15:51.683Z,324
2023-10-28T11:16:51.390Z,321
2023-10-28T11:17:51.971Z,311
2023-10-28T11:18:49.269Z,310
2023-10-28T11:19:51.067Z,312
2023-10-28T11:20:52.050Z,321
2023-10-28T11:21:52.262Z,328
2023-10-28T11:22:52.415Z,329
2023-10-28T11:23:52.363Z,327
2023-10-28T11:24:52.565Z,315
2023-10-28T11:25:52.070Z,318
2023-10-28T11:26:51.568Z,323
2023-10-28T11:27:51.866Z,328
2023-10-28T11:28:50.784Z,319
2023-10-28T11:29:51.069Z,315
2023-10-28T11:30:51.478Z,326
2023-10-28T11:31:51.846Z,321
2023-10-28T11:32:51.114Z,316
2023-10-28T11:33:51.109Z,312
2023-10-28T11:34:50.155Z,316
2023-10-28T11:35:51.553Z,324
2023-10-28T11:36:49.775Z,316
2023-10-28T11:37:51.140Z,321
2023-10-28T11:38:51.868Z,316
2023-10-28T11:39:51.351Z,324
2023-10-28T11:40:51.026Z,318
2023-10-28T11:41:51.045Z,326
2023-10-28T11:42:51.926Z,316
2023-10-28T11:43:52.249Z,306
2023-10-28T11:44:51.798Z,304
2023-10-28T11:45:51.339Z,313
2023-10-28T11:46:50.136Z,316
2023-10-28T11:47:51.439Z,315
2023-10-28T11:48:51.926Z,316
2023-10-28T11:49:51.366Z,310
2023-10-28T11:50:49.662Z,313
2023-10-28T11:51:50.649Z,318
2023-10-28T11:52:49.377Z,320
2023-10-28T11:53:50.788Z,316
2023-10-28T11:54:50.282Z,321
2023-10-28T11:55:50.310Z,322
2023-10-28T11:56:51.631Z,319
2023-10-28T11:57:52.421Z,310
2023-10-28T11:58:51.683Z,305
2023-10-28T11:59:51.146Z,301
2023-10-28T12:00:53.518Z,316
2023-10-28T12:01:54.710Z,322
2023-10-28T12:02:53.141Z,327
2023-10-28T12:03:52.188Z,319
2023-10-28T12:04:52.121Z,314
2023-10-28T12:05:52.657Z,315
2023-10-28T12:06:52.005Z,316
2023-10-28T12:07:51.458Z,312
2023-10-28T12:08:49.910Z,320
2023-10-28T12:09:50.988Z,308
2023-10-28T12:10:49.814Z,299
2023-10-28T12:11:49.879Z,314
2023-10-28T12:12:50.537Z,318
2023-10-28T12:13:51.397Z,320
2023-10-28T12:14:50.428Z,317
2023-10-28T12:15:50.005Z,313
2023-10-28T12:16:50.802Z,305
2023-10-28T12:17:50.853Z,316
2023-10-28T12:18:51.471Z,307
2023-10-28T12:19:50.566Z,308
2023-10-28T12:20:51.179Z,300
2023-10-28T12:21:51.698Z,304
2023-10-28T12:22:52.498Z,319
2023-10-28T12:23:52.279Z,318
2023-10-28T12:24:52.466Z,311
2023-10-28T12:25:52.904Z,309
2023-10-28T12:26:52.862Z,307
2023-10-28T12:27:52.385Z,312
2023-10-28T12:28:51.797Z,313
2023-10-28T12:29:51.297Z,321
2023-10-28T12:30:52.408Z,332
2023-10-28T12:31:51.936Z,333
2023-10-28T12:32:52.327Z,317
2023-10-28T12:33:52.115Z,319
2023-10-28T12:34:52.694Z,320
2023-10-28T12:35:49.645Z,324
2023-10-28T12:36:50.395Z,318
2023-10-28T12:37:51.823Z,319
2023-10-28T12:38:51.837Z,302
2023-10-28T12:39:51.849Z,300
2023-10-28T12:40:51.184Z,303
2023-10-28T12:41:51.244Z,305
2023-10-28T12:42:51.599Z,303
2023-10-28T12:43:51.211Z,308
2023-10-28T12:44:51.305Z,305
2023-10-28T12:45:52.090Z,297
2023-10-28T12:46:52.209Z,311
2023-10-28T12:47:51.881Z,307
2023-10-28T12:48:51.213Z,301
2023-10-28T12:50:52.925Z,307
2023-10-28T12:51:52.273Z,296
2023-10-28T12:52:52.549Z,299
2023-10-28T12:53:52.849Z,309
2023-10-28T12:54:52.847Z,315
2023-10-28T12:55:52.307Z,304
2023-10-28T12:56:52.063Z,311
2023-10-28T12:57:52.671Z,306
2023-10-28T12:58:51.424Z,297
2023-10-28T12:59:52.269Z,304
2023-10-28T13:00:53.251Z,311
2023-10-28T13:01:52.835Z,319
2023-10-28T13:02:52.826Z,323
2023-10-28T13:03:51.875Z,313
2023-10-28T13:04:51.013Z,316
2023-10-28T13:05:49.420Z,314
2023-10-28T13:06:50.150Z,313
2023-10-28T13:07:51.513Z,309
2023-10-28T13:08:51.731Z,318
2023-10-28T13:09:51.541Z,329
2023-10-28T13:10:54.983Z,311
2023-10-28T13:12:52.321Z,310
2023-10-28T13:13:50.963Z,312
2023-10-28T13:14:51.670Z,307
2023-10-28T13:15:51.723Z,298
2023-10-28T13:16:53.015Z,303
2023-10-28T13:17:52.257Z,312
2023-10-28T13:18:50.798Z,327
2023-10-28T13:19:50.271Z,315
2023-10-28T13:20:50.652Z,308
2023-10-28T13:21:49.641Z,300
2023-10-28T13:22:53.049Z,302
2023-10-28T13:23:51.591Z,306
2023-10-28T13:24:51.296Z,309
2023-10-28T13:25:51.266Z,322
2023-10-28T13:26:50.968Z,331
2023-10-28T13:27:51.130Z,315
2023-10-28T13:28:52.111Z,309
2023-10-28T13:29:51.388Z,321
2023-10-28T13:30:52.857Z,314
2023-10-28T13:31:52.829Z,310
2023-10-28T13:32:56.762Z,312
2023-10-28T13:33:54.563Z,305
2023-10-28T13:34:53.394Z,310
2023-10-28T13:36:52.515Z,312
2023-10-28T13:38:50.301Z,319
2023-10-28T13:39:50.590Z,324
2023-10-28T13:40:52.367Z,318
2023-10-28T13:41:52.435Z,329
2023-10-28T13:42:52.038Z,323
2023-10-28T13:43:52.541Z,307
2023-10-28T13:44:53.237Z,315
2023-10-28T13:45:52.732Z,313
2023-10-28T13:46:52.629Z,304
2023-10-28T13:47:52.799Z,319
2023-10-28T13:48:52.381Z,323
2023-10-28T13:49:51.352Z,312
2023-10-28T13:50:52.562Z,316
2023-10-28T13:51:52.370Z,309
2023-10-28T13:52:51.978Z,323
2023-10-28T13:53:53.279Z,326
2023-10-28T13:55:53.172Z,322
2023-10-28T13:56:51.993Z,325
2023-10-28T13:57:51.439Z,318
2023-10-28T13:58:50.844Z,307
2023-10-28T13:59:51.131Z,309
2023-10-28T14:00:52.275Z,311
2023-10-28T14:01:50.482Z,314
2023-10-28T14:02:50.789Z,323
2023-10-28T14:03:50.871Z,309
2023-10-28T14:04:50.952Z,299
2023-10-28T14:05:51.265Z,309
2023-10-28T14:06:50.287Z,311
2023-10-28T14:07:49.565Z,313
2023-10-28T14:08:50.883Z,304
2023-10-28T14:09:52.121Z,305
2023-10-28T14:10:54.610Z,309
2023-10-28T14:11:53.705Z,305
2023-10-28T14:12:52.210Z,304
2023-10-28T14:13:51.000Z,305
2023-10-28T14:14:50.251Z,308
2023-10-28T14:15:52.024Z,310
2023-10-28T14:16:53.298Z,311
2023-10-28T14:17:52.385Z,322
2023-10-28T14:18:53.072Z,316
2023-10-28T14:19:51.473Z,315
2023-10-28T14:20:52.408Z,306
2023-10-28T14:21:51.585Z,309
2023-10-28T14:22:54.475Z,319
2023-10-28T14:23:53.516Z,315
2023-10-28T14:24:53.051Z,316
2023-10-28T14:25:52.008Z,320